createdAt,value
2022-10-07T00:00:57.636Z,41.97
2022-10-07T00:03:26.515Z,40.17
2022-10-07T00:06:15.373Z,48.53
2022-10-07T00:08:45.671Z,37.15
2022-10-07T00:11:23.075Z,48.90
2022-10-07T00:13:53.802Z,40.53
2022-10-07T00:16:26.833Z,43.85
2022-10-07T00:18:58.681Z,46.60
2022-10-07T00:21:28.841Z,44.95
2022-10-07T00:23:56.500Z,44.33
2022-10-07T00:26:26.638Z,52.42
2022-10-07T00:28:55.343Z,46.65
2022-10-07T00:31:26.050Z,38.58
2022-10-07T00:33:55.197Z,38.60
2022-10-07T00:36:33.770Z,41.53
2022-10-07T00:39:07.932Z,39.85
2022-10-07T00:41:42.045Z,36.58
2022-10-07T00:44:31.290Z,44.00
2022-10-07T00:47:01.147Z,41.45
2022-10-07T00:49:29.566Z,42.80
2022-10-07T00:51:57.948Z,44.40
2022-10-07T00:54:25.556Z,53.28
2022-10-07T00:56:53.366Z,49.85
2022-10-07T00:59:21.473Z,37.78
2022-10-07T01:01:48.947Z,36.38
2022-10-07T01:04:17.253Z,38.83
2022-10-07T01:06:45.736Z,49.63
2022-10-07T01:09:14.380Z,43.85
2022-10-07T01:11:56.975Z,39.85
2022-10-07T01:15:03.374Z,49.30
2022-10-07T01:17:47.907Z,38.95
2022-10-07T01:20:23.763Z,42.38
2022-10-07T01:22:57.103Z,38.15
2022-10-07T01:25:39.246Z,41.70
2022-10-07T01:28:22.687Z,41.33
2022-10-07T01:30:58.202Z,39.70
2022-10-07T01:33:29.320Z,37.83
2022-10-07T01:36:02.749Z,52.13
2022-10-07T01:38:33.682Z,41.50
2022-10-07T01:41:23.107Z,42.35
2022-10-07T01:43:53.743Z,38.65
2022-10-07T01:46:27.028Z,41.65
2022-10-07T01:48:57.641Z,41.53
2022-10-07T01:51:28.637Z,30.92
2022-10-07T01:54:16.327Z,40.97
2022-10-07T01:57:05.199Z,44.70
2022-10-07T02:00:12.571Z,39.75
2022-10-07T02:03:17.792Z,37.97
2022-10-07T02:05:54.897Z,45.00
2022-10-07T02:08:42.347Z,39.15
2022-10-07T02:14:15.341Z,41.03
2022-10-07T02:16:45.602Z,35.70
2022-10-07T02:19:35.959Z,39.60
2022-10-07T02:22:04.225Z,38.15
2022-10-07T02:24:38.859Z,29.13
2022-10-07T02:27:12.640Z,35.35
2022-10-07T02:29:44.319Z,31.30
2022-10-07T02:32:17.808Z,33.08
2022-10-07T02:34:48.934Z,37.13
2022-10-07T02:37:26.794Z,40.17
2022-10-07T02:42:58.651Z,33.85
2022-10-07T02:45:45.994Z,35.13
2022-10-07T02:48:28.626Z,30.77
2022-10-07T02:51:00.459Z,33.75
2022-10-07T02:53:29.832Z,41.90
2022-10-07T02:55:59.780Z,29.95
2022-10-07T02:58:27.599Z,32.45
2022-10-07T03:00:59.735Z,36.58
2022-10-07T03:03:28.159Z,40.70
2022-10-07T03:06:00.683Z,35.92
2022-10-07T03:08:29.456Z,34.55
2022-10-07T03:10:57.712Z,28.73
2022-10-07T03:13:26.281Z,27.45
2022-10-07T03:15:58.478Z,44.05
2022-10-07T03:18:28.279Z,31.23
2022-10-07T03:21:05.334Z,39.03
2022-10-07T03:23:33.215Z,34.95
2022-10-07T03:26:01.415Z,36.08
2022-10-07T03:28:33.205Z,32.70
2022-10-07T03:31:10.080Z,26.63
2022-10-07T03:33:41.980Z,35.83
2022-10-07T03:36:10.246Z,34.08
2022-10-07T03:38:40.414Z,38.75
2022-10-07T03:41:09.478Z,27.23
2022-10-07T03:43:37.687Z,34.15
2022-10-07T03:46:06.907Z,34.42
2022-10-07T03:48:38.211Z,38.58
2022-10-07T03:51:06.213Z,28.38
2022-10-07T03:53:38.355Z,25.98
2022-10-07T03:56:07.228Z,35.40
2022-10-07T03:58:36.421Z,23.35
2022-10-07T04:01:10.039Z,32.15
2022-10-07T04:03:39.647Z,25.58
2022-10-07T04:06:08.247Z,37.75
2022-10-07T04:08:36.448Z,29.25
2022-10-07T04:11:06.360Z,26.63
2022-10-07T04:13:36.378Z,36.35
2022-10-07T04:16:10.685Z,30.67
2022-10-07T04:18:39.187Z,36.63
2022-10-07T04:21:08.764Z,33.88
2022-10-07T04:23:37.715Z,32.20
2022-10-07T04:26:10.917Z,27.50
2022-10-07T04:28:42.751Z,34.67
2022-10-07T04:31:18.008Z,37.13
2022-10-07T04:33:48.135Z,32.10
2022-10-07T04:36:21.726Z,28.33
2022-10-07T04:38:54.823Z,21.52
2022-10-07T04:41:27.385Z,32.10
2022-10-07T04:43:57.980Z,31.88
2022-10-07T04:46:28.969Z,31.42
2022-10-07T04:49:10.040Z,30.77
2022-10-07T04:51:37.698Z,28.05
2022-10-07T04:54:05.440Z,25.20
2022-10-07T04:56:39.431Z,33.97
2022-10-07T04:59:09.296Z,27.75
2022-10-07T05:01:39.304Z,22.65
2022-10-07T05:04:07.188Z,27.95
2022-10-07T05:06:34.656Z,27.77
2022-10-07T05:09:02.110Z,32.17
2022-10-07T05:11:33.530Z,23.20
2022-10-07T05:14:07.748Z,27.83
2022-10-07T05:16:37.117Z,25.50
2022-10-07T05:19:05.930Z,29.48
2022-10-07T05:21:33.816Z,29.05
2022-10-07T05:24:02.475Z,25.85
2022-10-07T05:26:35.152Z,28.95
2022-10-07T05:29:04.454Z,20.23
2022-10-07T05:31:38.613Z,25.25
2022-10-07T05:34:08.051Z,29.48
2022-10-07T05:36:36.425Z,31.92
2022-10-07T05:39:06.359Z,30.80
2022-10-07T05:41:49.183Z,24.55
2022-10-07T05:44:19.984Z,24.40
2022-10-07T05:46:49.830Z,24.20
2022-10-07T05:49:18.229Z,29.02
2022-10-07T05:51:46.088Z,29.35
2022-10-07T05:54:13.749Z,33.58
2022-10-07T05:56:44.577Z,26.05
2022-10-07T05:59:12.040Z,33.83
2022-10-07T06:01:42.798Z,19.42
2022-10-07T06:04:15.114Z,27.63
2022-10-07T06:06:46.127Z,28.70
2022-10-07T06:09:33.199Z,24.63
2022-10-07T06:12:24.270Z,22.00
2022-10-07T06:14:53.816Z,32.75
2022-10-07T06:17:21.267Z,24.90
2022-10-07T06:19:51.004Z,24.20
2022-10-07T06:22:20.007Z,24.60
2022-10-07T06:24:48.197Z,25.73
2022-10-07T06:27:16.171Z,28.98
2022-10-07T06:29:44.792Z,24.35
2022-10-07T06:32:12.567Z,32.38
2022-10-07T06:34:41.696Z,23.95
2022-10-07T06:37:10.098Z,26.73
2022-10-07T06:39:37.729Z,30.88
2022-10-07T06:42:05.566Z,26.40
2022-10-07T06:44:44.559Z,24.77
2022-10-07T06:47:16.319Z,26.05
2022-10-07T06:49:45.877Z,29.60
2022-10-07T06:52:13.643Z,22.17
2022-10-07T06:54:42.746Z,30.08
2022-10-07T06:57:40.518Z,26.45
2022-10-07T07:00:01.053Z,22.48
2022-10-07T07:02:30.530Z,20.63
2022-10-07T07:04:59.320Z,26.33
2022-10-07T07:07:27.645Z,17.50
2022-10-07T07:12:25.444Z,24.67
2022-10-07T07:14:54.829Z,23.67
2022-10-07T07:17:22.644Z,12.88
2022-10-07T07:19:50.116Z,22.17
2022-10-07T07:22:18.783Z,19.77
2022-10-07T07:24:46.751Z,20.60
2022-10-07T07:27:15.092Z,21.05
2022-10-07T07:29:44.022Z,27.55
2022-10-07T07:32:13.073Z,35.67
2022-10-07T07:34:43.741Z,27.17
2022-10-07T07:37:20.062Z,29.75
2022-10-07T07:39:51.426Z,28.42
2022-10-07T07:42:19.109Z,23.88
2022-10-07T07:44:50.017Z,32.83
2022-10-07T07:47:18.800Z,34.63
2022-10-07T07:49:49.199Z,17.50
2022-10-07T07:52:25.506Z,29.17
2022-10-07T07:54:57.877Z,20.83
2022-10-07T07:57:27.222Z,26.02
2022-10-07T07:59:55.501Z,26.45
2022-10-07T08:02:23.834Z,19.85
2022-10-07T08:04:53.882Z,28.60
2022-10-07T08:07:21.972Z,23.50
2022-10-07T08:09:50.968Z,26.25
2022-10-07T08:14:49.296Z,19.70
2022-10-07T08:17:17.629Z,25.98
2022-10-07T08:19:45.665Z,30.70
2022-10-07T08:22:17.495Z,20.65
2022-10-07T08:24:47.963Z,17.35
2022-10-07T08:27:19.040Z,16.67
2022-10-07T08:32:14.091Z,26.58
2022-10-07T08:34:41.499Z,16.93
2022-10-07T08:37:08.919Z,20.65
2022-10-07T08:39:36.569Z,15.80
2022-10-07T08:42:23.468Z,27.00
2022-10-07T08:44:51.304Z,22.70
2022-10-07T08:47:38.555Z,16.88
2022-10-07T08:50:41.220Z,15.25
2022-10-07T08:53:21.134Z,22.90
2022-10-07T08:56:13.013Z,21.17
2022-10-07T08:58:46.676Z,20.27
2022-10-07T09:01:26.111Z,20.23
2022-10-07T09:04:07.783Z,15.40
2022-10-07T09:06:52.032Z,21.50
2022-10-07T09:09:30.252Z,19.10
2022-10-07T09:11:59.734Z,18.33
2022-10-07T09:14:44.475Z,20.10
2022-10-07T09:17:19.054Z,25.80
2022-10-07T09:19:55.154Z,21.33
2022-10-07T09:22:32.215Z,11.95
2022-10-07T09:25:18.912Z,23.03
2022-10-07T09:27:46.755Z,19.10
2022-10-07T09:30:15.891Z,20.58
2022-10-07T09:32:48.679Z,19.15
2022-10-07T09:35:22.537Z,16.10
2022-10-07T09:38:09.451Z,17.33
2022-10-07T09:41:04.369Z,20.73
2022-10-07T09:43:34.387Z,14.98
2022-10-07T09:46:02.018Z,14.00
2022-10-07T09:48:33.253Z,18.70
2022-10-07T09:51:18.461Z,16.95
2022-10-07T09:54:16.966Z,14.93
2022-10-07T09:56:57.546Z,17.30
2022-10-07T09:59:28.260Z,21.45
2022-10-07T10:02:18.338Z,14.02
2022-10-07T10:04:52.257Z,23.40
2022-10-07T10:07:32.618Z,16.70
2022-10-07T10:10:23.955Z,15.25
2022-10-07T10:12:53.480Z,16.50
2022-10-07T10:15:40.476Z,19.70
2022-10-07T10:18:32.855Z,20.67
2022-10-07T10:21:21.244Z,20.48
2022-10-07T10:23:53.961Z,16.90
2022-10-07T10:26:41.891Z,14.82
2022-10-07T10:31:58.280Z,14.13
2022-10-07T10:34:44.368Z,17.20
2022-10-07T10:37:20.440Z,10.48
2022-10-07T10:40:09.915Z,14.77
2022-10-07T10:42:56.164Z,12.50
2022-10-07T10:45:59.414Z,14.68
2022-10-07T10:48:38.129Z,11.13
2022-10-07T10:51:05.946Z,13.57
2022-10-07T10:53:51.932Z,10.65
2022-10-07T10:56:43.682Z,11.68
2022-10-07T10:59:14.157Z,16.15
2022-10-07T11:01:44.236Z,10.05
2022-10-07T11:04:42.303Z,10.82
2022-10-07T11:07:21.717Z,15.20
2022-10-07T11:09:54.259Z,15.63
2022-10-07T11:12:41.403Z,10.55
2022-10-07T11:15:21.283Z,9.43
2022-10-07T11:17:51.412Z,6.80
2022-10-07T11:20:33.703Z,11.48
2022-10-07T11:23:19.566Z,6.95
2022-10-07T11:26:15.063Z,7.80
2022-10-07T11:28:44.695Z,8.95
2022-10-07T11:31:28.344Z,11.35
2022-10-07T11:34:18.366Z,8.80
2022-10-07T11:36:55.625Z,7.07
2022-10-07T11:39:24.179Z,8.13
2022-10-07T11:42:14.705Z,9.18
2022-10-07T11:44:53.354Z,8.80
2022-10-07T11:47:25.135Z,11.80
2022-10-07T11:50:09.200Z,8.27
2022-10-07T11:52:42.270Z,5.55
2022-10-07T11:55:18.148Z,9.88
2022-10-07T11:57:53.991Z,9.52
2022-10-07T12:00:36.560Z,12.05
2022-10-07T12:03:36.393Z,10.45
2022-10-07T12:06:11.429Z,10.73
2022-10-07T12:08:41.970Z,11.00
2022-10-07T12:11:12.499Z,10.25
2022-10-07T12:13:49.607Z,14.23
2022-10-07T12:16:31.936Z,11.45
2022-10-07T12:19:23.664Z,13.38
2022-10-07T12:22:00.294Z,8.93
2022-10-07T12:24:29.074Z,8.07
2022-10-07T12:27:16.372Z,8.77
2022-10-07T12:30:02.622Z,8.68
2022-10-07T12:33:00.765Z,9.43
2022-10-07T12:35:34.497Z,11.88
2022-10-07T12:38:22.718Z,11.20
2022-10-07T12:40:59.840Z,8.43
2022-10-07T12:43:41.257Z,12.00
2022-10-07T12:46:15.112Z,10.35
2022-10-07T12:48:48.058Z,8.15
2022-10-07T12:51:28.715Z,19.15
2022-10-07T12:53:59.368Z,11.85
2022-10-07T12:56:29.179Z,10.55
2022-10-07T12:59:21.869Z,9.18
2022-10-07T13:02:11.635Z,8.52
2022-10-07T13:05:16.503Z,8.00
2022-10-07T13:08:21.292Z,9.05
2022-10-07T13:11:17.498Z,9.48
2022-10-07T13:14:00.056Z,8.88
2022-10-07T13:16:55.110Z,9.50
2022-10-07T13:19:46.789Z,8.25
2022-10-07T13:22:18.981Z,10.35
2022-10-07T13:24:54.540Z,12.27
2022-10-07T13:27:28.264Z,10.55
2022-10-07T13:29:58.040Z,10.38
2022-10-07T13:32:34.246Z,10.27
2022-10-07T13:35:36.257Z,9.27
2022-10-07T13:38:06.527Z,8.55
2022-10-07T13:40:35.401Z,14.65
2022-10-07T13:43:07.037Z,9.57
2022-10-07T13:45:45.273Z,7.22
2022-10-07T13:48:18.025Z,11.52
2022-10-07T13:50:46.074Z,10.82
2022-10-07T13:53:41.543Z,6.63
2022-10-07T13:56:25.934Z,9.25
2022-10-07T13:58:55.545Z,8.18
2022-10-07T14:01:29.680Z,10.07
2022-10-07T14:04:00.987Z,8.57
2022-10-07T14:06:48.655Z,9.18
2022-10-07T14:09:22.065Z,10.23
2022-10-07T14:11:55.405Z,9.80
2022-10-07T14:14:33.742Z,9.05
2022-10-07T14:17:07.147Z,12.35
2022-10-07T14:19:34.915Z,8.85
2022-10-07T14:22:04.753Z,8.63
2022-10-07T14:24:32.553Z,10.38
2022-10-07T14:27:00.415Z,6.93
2022-10-07T14:29:28.006Z,7.65
2022-10-07T14:32:37.625Z,12.05
2022-10-07T14:35:23.020Z,13.65
2022-10-07T14:37:50.577Z,9.35
2022-10-07T14:40:23.767Z,13.82
2022-10-07T14:42:54.242Z,9.90
2022-10-07T14:45:24.649Z,9.75
2022-10-07T14:47:52.399Z,8.95
2022-10-07T14:50:20.071Z,15.05
2022-10-07T14:52:52.041Z,7.47
2022-10-07T14:55:24.684Z,11.73
2022-10-07T14:57:52.798Z,10.85
2022-10-07T15:00:22.994Z,10.02
2022-10-07T15:02:51.408Z,10.32
2022-10-07T15:05:19.135Z,8.25
2022-10-07T15:07:46.698Z,13.63
2022-10-07T15:10:23.073Z,10.40
2022-10-07T15:12:51.245Z,9.75
2022-10-07T15:15:19.018Z,9.15
2022-10-07T15:17:46.623Z,11.02
2022-10-07T15:20:15.649Z,10.18
2022-10-07T15:22:45.687Z,8.27
2022-10-07T15:25:15.318Z,8.18
2022-10-07T15:27:43.027Z,14.07
2022-10-07T15:30:11.290Z,10.23
2022-10-07T15:35:07.432Z,14.82
2022-10-07T15:37:34.910Z,9.13
2022-10-07T15:40:02.482Z,12.50
2022-10-07T15:42:30.183Z,6.53
2022-10-07T15:44:57.655Z,8.68
2022-10-07T15:47:27.811Z,10.15
2022-10-07T15:49:55.239Z,12.45
2022-10-07T15:52:22.961Z,10.30
2022-10-07T15:54:51.012Z,11.15
2022-10-07T15:59:46.000Z,13.60
2022-10-07T16:02:16.379Z,10.65
2022-10-07T16:04:45.286Z,15.50
2022-10-07T16:07:13.220Z,11.10
2022-10-07T16:09:40.985Z,10.57
2022-10-07T16:12:08.878Z,8.68
2022-10-07T16:14:36.317Z,15.48
2022-10-07T16:17:04.209Z,11.48
2022-10-07T16:19:31.682Z,11.20
2022-10-07T16:21:59.471Z,12.15
2022-10-07T16:24:32.513Z,14.13
2022-10-07T16:27:02.404Z,12.98
2022-10-07T16:29:48.295Z,12.95
2022-10-07T16:32:15.929Z,14.52
2022-10-07T16:34:44.431Z,19.35
2022-10-07T16:37:12.506Z,11.63
2022-10-07T16:39:40.062Z,13.57
2022-10-07T16:42:08.072Z,13.32
2022-10-07T16:44:38.762Z,17.15
2022-10-07T16:47:06.439Z,12.35
2022-10-07T16:49:36.349Z,17.42
2022-10-07T16:52:04.416Z,19.98
2022-10-07T16:54:35.265Z,20.10
2022-10-07T16:57:02.870Z,13.38
2022-10-07T16:59:30.827Z,13.50
2022-10-07T17:02:02.254Z,13.23
2022-10-07T17:04:29.869Z,21.25
2022-10-07T17:06:58.167Z,15.80
2022-10-07T17:11:53.208Z,18.90
2022-10-07T17:14:21.795Z,21.13
2022-10-07T17:16:56.168Z,17.02
2022-10-07T17:19:26.105Z,20.20
2022-10-07T17:21:55.500Z,18.45
2022-10-07T17:24:23.859Z,16.10
2022-10-07T17:26:52.884Z,14.98
2022-10-07T17:29:21.835Z,13.30
2022-10-07T17:31:50.979Z,20.58
2022-10-07T17:34:20.669Z,13.25
2022-10-07T17:36:48.681Z,13.70
2022-10-07T17:39:17.351Z,21.85
2022-10-07T17:41:45.055Z,23.73
2022-10-07T17:44:13.070Z,15.52
2022-10-07T17:46:41.606Z,14.77
2022-10-07T17:49:13.433Z,15.20
2022-10-07T17:51:45.044Z,17.33
2022-10-07T17:54:13.772Z,15.23
2022-10-07T17:56:44.407Z,25.40
2022-10-07T17:59:12.287Z,16.63
2022-10-07T18:01:39.893Z,22.80
2022-10-07T18:04:11.379Z,16.75
2022-10-07T18:06:39.947Z,18.55
2022-10-07T18:09:09.434Z,17.02
2022-10-07T18:11:55.392Z,14.48
2022-10-07T18:14:42.794Z,23.50
2022-10-07T18:17:11.259Z,17.38
2022-10-07T18:19:41.526Z,18.35
2022-10-07T18:22:09.589Z,21.38
2022-10-07T18:24:37.109Z,28.67
2022-10-07T18:27:04.594Z,18.35
2022-10-07T18:29:38.013Z,28.02
2022-10-07T18:32:07.057Z,25.77
2022-10-07T18:34:34.984Z,23.10
2022-10-07T18:37:02.592Z,24.02
2022-10-07T18:39:30.140Z,23.05
2022-10-07T18:41:58.222Z,26.13
2022-10-07T18:44:26.081Z,30.40
2022-10-07T18:46:53.559Z,29.42
2022-10-07T18:49:21.128Z,20.98
2022-10-07T18:51:50.864Z,18.75
2022-10-07T18:54:19.512Z,23.08
2022-10-07T18:56:48.421Z,22.63
2022-10-07T18:59:17.127Z,24.98
2022-10-07T19:01:49.860Z,23.20
2022-10-07T19:04:19.381Z,19.35
2022-10-07T19:06:47.859Z,19.50
2022-10-07T19:09:21.164Z,14.68
2022-10-07T19:11:49.308Z,14.13
2022-10-07T19:14:16.875Z,10.13
2022-10-07T19:16:49.265Z,31.80
2022-10-07T19:19:21.599Z,18.80
2022-10-07T19:21:51.642Z,20.80
2022-10-07T19:24:20.071Z,19.48
2022-10-07T19:26:49.967Z,15.70
2022-10-07T19:29:18.333Z,21.23
2022-10-07T19:31:48.737Z,24.35
2022-10-07T19:34:19.922Z,16.80
2022-10-07T19:36:48.535Z,21.73
2022-10-07T19:39:18.326Z,19.48
2022-10-07T19:41:46.569Z,25.42
2022-10-07T19:46:41.648Z,22.08
2022-10-07T19:49:10.107Z,21.90
2022-10-07T19:51:38.845Z,19.50
2022-10-07T19:54:11.911Z,22.40
2022-10-07T19:56:40.831Z,19.80
2022-10-07T19:59:11.754Z,21.10
2022-10-07T20:01:44.412Z,22.40
2022-10-07T20:04:15.799Z,29.92
2022-10-07T20:06:43.783Z,24.90
2022-10-07T20:09:13.941Z,25.17
2022-10-07T20:11:41.614Z,21.33
2022-10-07T20:14:10.022Z,24.73
2022-10-07T20:16:38.982Z,25.08
2022-10-07T20:19:10.908Z,19.42
2022-10-07T20:21:39.293Z,19.98
2022-10-07T20:26:37.406Z,26.95
2022-10-07T20:29:07.249Z,24.65
2022-10-07T20:31:38.908Z,23.55
2022-10-07T20:34:08.132Z,33.17
2022-10-07T20:36:37.920Z,20.95
2022-10-07T20:39:38.514Z,27.63
2022-10-07T20:42:22.382Z,23.70
2022-10-07T20:44:51.423Z,24.77
2022-10-07T20:47:20.428Z,23.08
2022-10-07T20:49:50.498Z,26.30
2022-10-07T20:52:20.870Z,21.23
2022-10-07T20:54:49.271Z,17.95
2022-10-07T20:57:23.680Z,26.55
2022-10-07T20:59:51.358Z,25.90
2022-10-07T21:02:21.267Z,30.95
2022-10-07T21:04:48.895Z,22.98
2022-10-07T21:07:17.751Z,28.20
2022-10-07T21:09:46.329Z,19.80
2022-10-07T21:12:16.100Z,29.92
2022-10-07T21:14:44.303Z,34.00
2022-10-07T21:17:12.322Z,27.58
2022-10-07T21:19:40.147Z,29.58
2022-10-07T21:22:08.224Z,27.85
2022-10-07T21:24:35.727Z,24.20
2022-10-07T21:27:05.365Z,30.25
2022-10-07T21:29:36.381Z,23.08
2022-10-07T21:32:09.272Z,23.40
2022-10-07T21:34:37.806Z,20.15
2022-10-07T21:37:05.353Z,28.17
2022-10-07T21:39:32.847Z,19.40
2022-10-07T21:42:00.356Z,27.27
2022-10-07T21:44:28.964Z,23.88
2022-10-07T21:47:00.003Z,25.73
2022-10-07T21:49:27.580Z,25.08
2022-10-07T21:52:04.284Z,21.77
2022-10-07T21:54:31.848Z,32.53
2022-10-07T21:56:59.338Z,29.10
2022-10-07T21:59:26.956Z,29.20
2022-10-07T22:01:54.518Z,24.73
2022-10-07T22:04:22.094Z,27.35
2022-10-07T22:07:08.118Z,26.92
2022-10-07T22:09:35.796Z,25.55
2022-10-07T22:12:03.409Z,34.92
2022-10-07T22:14:30.808Z,30.08
2022-10-07T22:16:58.270Z,25.63
2022-10-07T22:19:25.654Z,35.72
2022-10-07T22:21:53.199Z,25.10
2022-10-07T22:24:20.776Z,38.15
2022-10-07T22:26:48.477Z,27.98
2022-10-07T22:29:17.585Z,27.58
2022-10-07T22:31:45.438Z,26.48
2022-10-07T22:34:33.199Z,22.70
2022-10-07T22:37:01.059Z,30.48
2022-10-07T22:39:28.744Z,28.15
2022-10-07T22:41:57.732Z,31.73
2022-10-07T22:44:28.573Z,29.33
2022-10-07T22:46:59.251Z,30.27
2022-10-07T22:49:57.912Z,36.83
2022-10-07T22:52:25.525Z,33.60
2022-10-07T22:54:52.975Z,26.65
2022-10-07T22:57:20.466Z,30.83
2022-10-07T22:59:47.994Z,31.27
2022-10-07T23:02:15.490Z,28.55
2022-10-07T23:04:42.917Z,42.38
2022-10-07T23:07:10.776Z,35.83
2022-10-07T23:09:38.281Z,26.52
2022-10-07T23:12:06.403Z,31.58
2022-10-07T23:14:33.886Z,30.90
2022-10-07T23:17:01.595Z,31.13
2022-10-07T23:19:29.014Z,35.17
2022-10-07T23:21:56.524Z,33.28
2022-10-07T23:24:24.023Z,34.28
2022-10-07T23:26:51.459Z,33.55
2022-10-07T23:29:20.484Z,30.65
2022-10-07T23:31:48.061Z,39.38
2022-10-07T23:34:15.533Z,36.50
2022-10-07T23:36:43.090Z,33.30
2022-10-07T23:39:11.061Z,40.85
2022-10-07T23:41:38.488Z,40.92
2022-10-07T23:44:06.146Z,35.38
2022-10-07T23:46:35.846Z,34.80
2022-10-07T23:49:04.439Z,45.55
2022-10-07T23:51:33.246Z,38.22
2022-10-07T23:54:02.809Z,35.65
2022-10-07T23:56:31.231Z,43.95
2022-10-07T23:58:58.782Z,43.72
